createdAt,value
2018-09-25T00:00:33.099Z,101281.97
2018-09-25T00:03:08.161Z,101293.47
2018-09-25T00:05:42.750Z,101291.59
2018-09-25T00:08:18.784Z,101288.27
2018-09-25T00:10:54.362Z,101298.13
2018-09-25T00:13:29.300Z,101297.61
2018-09-25T00:16:04.527Z,101300.00
2018-09-25T00:18:39.837Z,101306.88
2018-09-25T00:21:15.511Z,101303.83
2018-09-25T00:23:50.376Z,101313.97
2018-09-25T00:26:25.792Z,101312.55
2018-09-25T00:29:02.732Z,101314.34
2018-09-25T00:31:38.075Z,101316.61
2018-09-25T00:34:13.631Z,101325.61
2018-09-25T00:36:49.050Z,101323.94
2018-09-25T00:39:24.034Z,101322.55
2018-09-25T00:41:59.321Z,101324.92
2018-09-25T00:44:35.956Z,101322.89
2018-09-25T00:47:11.686Z,101323.48
2018-09-25T00:49:46.779Z,101322.66
2018-09-25T00:52:22.121Z,101314.09
2018-09-25T00:54:57.371Z,101320.19
2018-09-25T00:57:32.000Z,101316.10
2018-09-25T01:00:07.962Z,101319.11
2018-09-25T01:02:44.019Z,101321.86
2018-09-25T01:05:20.165Z,101317.94
2018-09-25T01:07:55.510Z,101311.75
2018-09-25T01:10:30.793Z,101315.39
2018-09-25T01:13:06.365Z,101319.00
2018-09-25T01:15:41.185Z,101317.32
2018-09-25T01:18:20.509Z,101320.81
2018-09-25T01:20:56.391Z,101318.77
2018-09-25T01:23:31.663Z,101333.22
2018-09-25T01:26:14.676Z,101331.09
2018-09-25T01:28:49.652Z,101331.91
2018-09-25T01:31:26.289Z,101325.49
2018-09-25T01:34:01.142Z,101331.54
2018-09-25T01:36:37.081Z,101332.56
2018-09-25T01:39:13.501Z,101335.59
2018-09-25T01:41:48.560Z,101334.98
2018-09-25T01:44:23.678Z,101321.48
2018-09-25T01:46:59.320Z,101329.77
2018-09-25T01:49:35.043Z,101341.89
2018-09-25T01:52:10.067Z,101338.77
2018-09-25T01:54:45.506Z,101338.53
2018-09-25T01:57:20.866Z,101342.10
2018-09-25T01:59:56.712Z,101345.63
2018-09-25T02:02:32.076Z,101339.83
2018-09-25T02:05:07.068Z,101336.70
2018-09-25T02:07:42.279Z,101347.25
2018-09-25T02:10:17.978Z,101347.86
2018-09-25T02:12:53.011Z,101356.45
2018-09-25T02:15:29.729Z,101360.50
2018-09-25T02:18:05.639Z,101358.24
2018-09-25T02:20:40.761Z,101355.88
2018-09-25T02:23:15.497Z,101364.00
2018-09-25T02:25:51.139Z,101368.39
2018-09-25T02:28:26.192Z,101370.46
2018-09-25T02:31:02.145Z,101344.98
2018-09-25T02:33:37.574Z,101386.39
2018-09-25T02:36:12.630Z,101380.44
2018-09-25T02:38:47.749Z,101387.19
2018-09-25T02:41:22.622Z,101383.77
2018-09-25T02:43:58.350Z,101389.33
2018-09-25T02:46:33.630Z,101387.85
2018-09-25T02:49:08.574Z,101388.85
2018-09-25T02:51:43.767Z,101391.55
2018-09-25T02:54:18.997Z,101394.55
2018-09-25T02:56:55.028Z,101394.50
2018-09-25T02:59:30.277Z,101392.03
2018-09-25T03:02:06.454Z,101395.69
2018-09-25T03:04:41.812Z,101399.55
2018-09-25T03:07:17.101Z,101400.72
2018-09-25T03:09:52.895Z,101397.72
2018-09-25T03:12:28.323Z,101404.02
2018-09-25T03:15:04.372Z,101399.77
2018-09-25T03:17:40.851Z,101377.64
2018-09-25T03:20:16.563Z,101409.19
2018-09-25T03:22:52.060Z,101413.28
2018-09-25T03:25:26.765Z,101412.11
2018-09-25T03:28:02.007Z,101417.06
2018-09-25T03:30:37.249Z,101418.12
2018-09-25T03:33:12.872Z,101422.57
2018-09-25T03:35:48.379Z,101425.31
2018-09-25T03:38:23.764Z,101420.02
2018-09-25T03:40:58.788Z,101414.42
2018-09-25T03:43:34.518Z,101417.41
2018-09-25T03:46:10.600Z,101422.94
2018-09-25T03:48:45.194Z,101425.32
2018-09-25T03:51:20.373Z,101424.61
2018-09-25T03:53:55.456Z,101425.66
2018-09-25T03:56:31.973Z,101431.05
2018-09-25T03:59:07.879Z,101426.48
2018-09-25T04:01:42.959Z,101430.48
2018-09-25T04:04:17.647Z,101433.88
2018-09-25T04:06:53.449Z,101434.50
2018-09-25T04:09:29.239Z,101444.00
2018-09-25T04:12:03.862Z,101408.30
2018-09-25T04:14:39.750Z,101445.16
2018-09-25T04:17:15.120Z,101442.27
2018-09-25T04:19:50.539Z,101442.08
2018-09-25T04:22:26.197Z,101446.95
2018-09-25T04:25:01.803Z,101445.03
2018-09-25T04:27:36.678Z,101442.76
2018-09-25T04:30:12.623Z,101450.02
2018-09-25T04:32:48.061Z,101451.15
2018-09-25T04:35:22.970Z,101464.78
2018-09-25T04:37:58.265Z,101411.38
2018-09-25T04:40:33.438Z,101460.48
2018-09-25T04:43:08.622Z,101461.03
2018-09-25T04:45:43.960Z,101464.64
2018-09-25T04:48:18.765Z,101464.13
2018-09-25T04:50:53.472Z,101466.44
2018-09-25T04:53:30.091Z,101471.61
2018-09-25T04:56:06.056Z,101464.81
2018-09-25T04:58:40.789Z,101481.78
2018-09-25T05:01:15.749Z,101477.95
2018-09-25T05:03:50.605Z,101483.27
2018-09-25T05:06:26.022Z,101485.02
2018-09-25T05:09:01.645Z,101482.15
2018-09-25T05:11:36.280Z,101480.33
2018-09-25T05:14:10.927Z,101486.52
2018-09-25T05:16:45.538Z,101488.84
2018-09-25T05:19:21.467Z,101487.23
2018-09-25T05:21:56.668Z,101497.45
2018-09-25T05:24:32.047Z,101499.33
2018-09-25T05:27:07.134Z,101497.06
2018-09-25T05:29:42.143Z,101499.58
2018-09-25T05:32:17.389Z,101488.82
2018-09-25T05:34:52.314Z,101499.13
2018-09-25T05:37:27.645Z,101498.06
2018-09-25T05:40:02.798Z,101496.08
2018-09-25T05:42:37.957Z,101502.71
2018-09-25T05:45:13.788Z,101514.47
2018-09-25T05:47:48.638Z,101495.05
2018-09-25T05:50:24.010Z,101518.38
2018-09-25T05:52:59.309Z,101525.01
2018-09-25T05:55:35.207Z,101522.89
2018-09-25T05:58:10.116Z,101522.06
2018-09-25T06:00:45.156Z,101527.63
2018-09-25T06:03:20.333Z,101529.33
2018-09-25T06:05:55.692Z,101532.67
2018-09-25T06:08:30.752Z,101510.55
2018-09-25T06:11:07.186Z,101510.72
2018-09-25T06:13:42.159Z,101549.09
2018-09-25T06:16:19.278Z,101537.88
2018-09-25T06:18:53.884Z,101548.34
2018-09-25T06:21:29.085Z,101549.80
2018-09-25T06:24:04.011Z,101556.27
2018-09-25T06:26:39.372Z,101555.36
2018-09-25T06:29:14.048Z,101562.16
2018-09-25T06:31:49.091Z,101559.55
2018-09-25T06:34:24.063Z,101559.16
2018-09-25T06:36:59.015Z,101558.72
2018-09-25T06:39:33.731Z,101557.66
2018-09-25T06:42:08.611Z,101561.91
2018-09-25T06:44:43.498Z,101565.11
2018-09-25T06:47:18.311Z,101576.16
2018-09-25T06:49:53.742Z,101567.79
2018-09-25T06:52:29.120Z,101568.34
2018-09-25T06:55:08.470Z,101570.95
2018-09-25T06:57:43.464Z,101580.72
2018-09-25T07:00:18.366Z,101580.62
2018-09-25T07:02:53.409Z,101582.20
2018-09-25T07:05:28.157Z,101536.03
2018-09-25T07:08:03.428Z,101584.41
2018-09-25T07:10:38.402Z,101591.56
2018-09-25T07:13:14.226Z,101591.83
2018-09-25T07:15:49.653Z,101589.36
2018-09-25T07:18:24.848Z,101583.47
2018-09-25T07:20:59.704Z,101593.67
2018-09-25T07:23:34.705Z,101579.81
2018-09-25T07:26:09.450Z,101589.06
2018-09-25T07:28:44.703Z,101596.99
2018-09-25T07:31:19.777Z,101595.28
2018-09-25T07:33:54.978Z,101595.75
2018-09-25T07:36:29.844Z,101602.89
2018-09-25T07:39:05.186Z,101595.67
2018-09-25T07:41:41.441Z,101605.12
2018-09-25T07:44:17.726Z,101606.16
2018-09-25T07:46:53.552Z,101563.72
2018-09-25T07:49:28.148Z,101603.43
2018-09-25T07:52:03.264Z,101603.59
2018-09-25T07:54:39.029Z,101601.00
2018-09-25T07:57:14.285Z,101607.78
2018-09-25T07:59:49.209Z,101608.61
2018-09-25T08:02:24.253Z,101617.66
2018-09-25T08:04:59.255Z,101615.70
2018-09-25T08:07:34.365Z,101618.50
2018-09-25T08:10:10.822Z,101623.28
2018-09-25T08:12:46.925Z,101621.80
2018-09-25T08:15:21.670Z,101627.38
2018-09-25T08:17:56.895Z,101621.45
2018-09-25T08:20:31.638Z,101625.40
2018-09-25T08:23:07.217Z,101625.19
2018-09-25T08:25:41.948Z,101623.95
2018-09-25T08:28:17.443Z,101605.84
2018-09-25T08:30:52.159Z,101627.13
2018-09-25T08:33:27.914Z,101627.48
2018-09-25T08:36:02.848Z,101628.59
2018-09-25T08:38:38.641Z,101636.03
2018-09-25T08:41:13.917Z,101643.87
2018-09-25T08:43:49.146Z,101647.09
2018-09-25T08:46:24.083Z,101618.64
2018-09-25T08:48:59.022Z,101648.02
2018-09-25T08:51:33.952Z,101652.14
2018-09-25T08:54:08.994Z,101651.78
2018-09-25T08:56:44.146Z,101642.54
2018-09-25T08:59:19.722Z,101651.70
2018-09-25T09:01:54.603Z,101650.73
2018-09-25T09:04:29.893Z,101647.89
2018-09-25T09:07:04.982Z,101613.06
2018-09-25T09:09:41.228Z,101643.84
2018-09-25T09:12:15.842Z,101645.22
2018-09-25T09:14:50.777Z,101645.26
2018-09-25T09:17:26.151Z,101641.44
2018-09-25T09:20:01.646Z,101647.33
2018-09-25T09:22:36.960Z,101649.05
2018-09-25T09:25:11.819Z,101643.94
2018-09-25T09:27:47.511Z,101640.25
2018-09-25T09:30:22.244Z,101638.94
2018-09-25T09:32:57.249Z,101636.21
2018-09-25T09:35:32.476Z,101639.91
2018-09-25T09:38:07.950Z,101643.03
2018-09-25T09:40:42.688Z,101639.61
2018-09-25T09:43:17.930Z,101644.50
2018-09-25T09:45:52.679Z,101646.81
2018-09-25T09:48:27.212Z,101648.09
2018-09-25T09:51:02.068Z,101647.91
2018-09-25T09:53:37.803Z,101644.86
2018-09-25T09:56:12.990Z,101650.78
2018-09-25T09:58:48.297Z,101648.00
2018-09-25T10:01:23.042Z,101657.75
2018-09-25T10:03:58.577Z,101656.22
2018-09-25T10:06:33.444Z,101622.27
2018-09-25T10:09:09.123Z,101653.62
2018-09-25T10:11:44.604Z,101644.23
2018-09-25T10:14:20.078Z,101647.14
2018-09-25T10:16:55.571Z,101653.95
2018-09-25T10:19:31.492Z,101649.70
2018-09-25T10:22:06.998Z,101652.02
2018-09-25T10:24:42.795Z,101646.13
2018-09-25T10:27:17.647Z,101654.50
2018-09-25T10:29:53.219Z,101643.14
2018-09-25T10:32:28.709Z,101652.70
2018-09-25T10:35:03.522Z,101648.55
2018-09-25T10:37:40.172Z,101648.44
2018-09-25T10:40:15.358Z,101646.23
2018-09-25T10:42:52.024Z,101650.24
2018-09-25T10:45:26.778Z,101648.10
2018-09-25T10:48:01.707Z,101655.52
2018-09-25T10:50:36.738Z,101653.47
2018-09-25T10:53:13.431Z,101648.03
2018-09-25T10:55:48.710Z,101642.13
2018-09-25T10:58:24.054Z,101648.13
2018-09-25T11:00:59.501Z,101647.88
2018-09-25T11:03:34.751Z,101647.80
2018-09-25T11:06:09.824Z,101642.51
2018-09-25T11:08:45.701Z,101654.34
2018-09-25T11:11:20.334Z,101652.39
2018-09-25T11:13:55.222Z,101648.77
2018-09-25T11:16:29.971Z,101643.24
2018-09-25T11:19:04.971Z,101650.13
2018-09-25T11:21:41.054Z,101655.52
2018-09-25T11:24:16.374Z,101651.95
2018-09-25T11:26:51.366Z,101657.67
2018-09-25T11:29:26.598Z,101652.00
2018-09-25T11:32:01.588Z,101646.25
2018-09-25T11:34:37.921Z,101647.31
2018-09-25T11:37:12.706Z,101651.66
2018-09-25T11:39:47.824Z,101647.41
2018-09-25T11:42:22.828Z,101647.68
2018-09-25T11:44:57.816Z,101647.22
2018-09-25T11:47:32.948Z,101634.02
2018-09-25T11:50:08.296Z,101655.52
2018-09-25T11:52:43.750Z,101650.06
2018-09-25T11:55:18.793Z,101654.31
2018-09-25T11:57:54.476Z,101645.36
2018-09-25T12:00:29.744Z,101649.75
2018-09-25T12:03:05.019Z,101655.36
2018-09-25T12:05:40.500Z,101653.42
2018-09-25T12:08:15.905Z,101645.39
2018-09-25T12:10:50.761Z,101651.00
2018-09-25T12:13:26.394Z,101646.20
2018-09-25T12:16:01.280Z,101652.02
2018-09-25T12:18:37.710Z,101651.77
2018-09-25T12:21:13.044Z,101650.08
2018-09-25T12:23:47.922Z,101645.46
2018-09-25T12:26:23.106Z,101648.11
2018-09-25T12:28:58.685Z,101640.41
2018-09-25T12:31:34.866Z,101639.19
2018-09-25T12:34:10.134Z,101640.07
2018-09-25T12:36:44.985Z,101634.91
2018-09-25T12:39:20.010Z,101634.65
2018-09-25T12:41:54.750Z,101623.63
2018-09-25T12:44:29.778Z,101620.73
2018-09-25T12:47:06.525Z,101593.80
2018-09-25T12:49:41.952Z,101622.22
2018-09-25T12:52:17.265Z,101624.17
2018-09-25T12:54:52.763Z,101620.30
2018-09-25T12:57:28.253Z,101594.11
2018-09-25T13:00:03.562Z,101621.30
2018-09-25T13:02:39.584Z,101615.47
2018-09-25T13:05:15.224Z,101627.80
2018-09-25T13:07:52.110Z,101625.88
2018-09-25T13:10:27.263Z,101619.25
2018-09-25T13:13:02.084Z,101624.03
2018-09-25T13:15:36.712Z,101626.59
2018-09-25T13:18:14.218Z,101600.50
2018-09-25T13:20:49.593Z,101623.27
2018-09-25T13:23:24.830Z,101621.97
2018-09-25T13:26:00.928Z,101622.83
2018-09-25T13:28:36.108Z,101619.98
2018-09-25T13:31:12.044Z,101618.83
2018-09-25T13:33:47.431Z,101610.70
2018-09-25T13:36:22.071Z,101603.82
2018-09-25T13:38:57.937Z,101575.87
2018-09-25T13:41:34.145Z,101601.66
2018-09-25T13:44:11.044Z,101604.60
2018-09-25T13:46:45.969Z,101599.36
2018-09-25T13:49:21.350Z,101567.44
2018-09-25T13:51:56.247Z,101584.34
2018-09-25T13:54:33.431Z,101581.38
2018-09-25T13:57:08.988Z,101583.00
2018-09-25T13:59:46.168Z,101571.38
2018-09-25T14:02:22.073Z,101564.50
2018-09-25T14:04:59.428Z,101576.36
2018-09-25T14:07:40.591Z,101559.95
2018-09-25T14:10:17.068Z,101558.94
2018-09-25T14:13:01.412Z,101556.77
2018-09-25T14:15:39.329Z,101566.05
2018-09-25T14:18:14.489Z,101568.03
2018-09-25T14:20:55.615Z,101565.30
2018-09-25T14:30:42.138Z,101535.89
2018-09-25T14:33:17.607Z,101541.28
2018-09-25T14:35:52.960Z,101546.99
2018-09-25T14:38:29.010Z,101538.51
2018-09-25T14:41:04.553Z,101534.97
2018-09-25T14:43:39.665Z,101546.41
2018-09-25T14:46:15.407Z,101513.56
2018-09-25T14:48:54.095Z,101546.41
2018-09-25T14:51:29.235Z,101545.36
2018-09-25T14:54:04.409Z,101540.36
2018-09-25T14:56:39.787Z,101533.94
2018-09-25T14:59:15.684Z,101533.52
2018-09-25T15:01:52.305Z,101539.80
2018-09-25T15:04:27.882Z,101545.17
2018-09-25T15:07:02.951Z,101529.09
2018-09-25T15:09:38.125Z,101527.94
2018-09-25T15:12:14.740Z,101521.89
2018-09-25T15:14:50.868Z,101520.97
2018-09-25T15:17:26.244Z,101523.45
2018-09-25T15:20:03.401Z,101526.61
2018-09-25T15:22:38.800Z,101508.86
2018-09-25T15:25:13.758Z,101527.84
2018-09-25T15:27:49.617Z,101522.13
2018-09-25T15:30:25.629Z,101505.32
2018-09-25T15:33:00.779Z,101514.89
2018-09-25T15:35:36.252Z,101533.79
2018-09-25T15:38:12.882Z,101535.97
2018-09-25T15:40:47.574Z,101532.43
2018-09-25T15:43:22.551Z,101529.73
2018-09-25T15:45:59.508Z,101528.44
2018-09-25T15:48:38.195Z,101513.72
2018-09-25T15:51:15.336Z,101511.19
2018-09-25T15:53:51.521Z,101515.68
2018-09-25T15:56:27.676Z,101521.17
2018-09-25T15:59:03.763Z,101526.69
2018-09-25T16:01:40.868Z,101533.14
2018-09-25T16:04:16.036Z,101525.79
2018-09-25T16:06:51.955Z,101525.19
2018-09-25T16:09:28.447Z,101521.69
2018-09-25T16:12:05.044Z,101516.06
2018-09-25T16:14:41.918Z,101522.90
2018-09-25T16:17:18.439Z,101525.75
2018-09-25T16:19:53.335Z,101521.94
2018-09-25T16:22:29.260Z,101520.09
2018-09-25T16:25:04.280Z,101527.54
2018-09-25T16:27:39.869Z,101496.52
2018-09-25T16:30:14.821Z,101524.31
2018-09-25T16:32:49.937Z,101530.49
2018-09-25T16:35:24.828Z,101533.92
2018-09-25T16:38:00.131Z,101539.84
2018-09-25T16:40:35.011Z,101542.16
2018-09-25T16:43:11.072Z,101542.05
2018-09-25T16:45:46.360Z,101547.28
2018-09-25T16:48:22.948Z,101543.75
2018-09-25T16:50:58.441Z,101551.52
2018-09-25T16:53:33.543Z,101550.52
2018-09-25T16:56:08.710Z,101545.66
2018-09-25T16:58:44.646Z,101542.35
2018-09-25T17:01:20.691Z,101550.19
2018-09-25T17:03:56.531Z,101557.73
2018-09-25T17:06:32.160Z,101560.13
2018-09-25T17:09:08.052Z,101562.90
2018-09-25T17:11:43.595Z,101572.20
2018-09-25T17:14:18.758Z,101566.20
2018-09-25T17:16:55.785Z,101572.23
2018-09-25T17:19:31.704Z,101582.53
2018-09-25T17:22:07.197Z,101591.81
2018-09-25T17:24:41.930Z,101599.77
2018-09-25T17:27:18.075Z,101605.59
2018-09-25T17:29:52.877Z,101613.86
2018-09-25T17:32:28.379Z,101613.41
2018-09-25T17:35:03.658Z,101612.19
2018-09-25T17:37:38.836Z,101613.52
2018-09-25T17:40:16.091Z,101614.05
2018-09-25T17:42:51.571Z,101613.27
2018-09-25T17:45:27.418Z,101620.06
2018-09-25T17:48:03.869Z,101613.97
2018-09-25T17:50:38.653Z,101615.66
2018-09-25T17:53:14.991Z,101608.45
2018-09-25T17:55:50.441Z,101615.70
2018-09-25T17:58:25.880Z,101615.69
2018-09-25T18:01:01.993Z,101612.25
2018-09-25T18:03:38.444Z,101618.36
2018-09-25T18:06:14.302Z,101621.80
2018-09-25T18:08:53.735Z,101625.23
2018-09-25T18:11:30.007Z,101613.73
2018-09-25T18:14:04.859Z,101619.48
2018-09-25T18:16:39.848Z,101621.79
2018-09-25T18:19:15.061Z,101624.92
2018-09-25T18:21:50.884Z,101628.84
2018-09-25T18:24:27.728Z,101629.34
2018-09-25T18:27:03.601Z,101628.35
2018-09-25T18:29:40.186Z,101633.13
2018-09-25T18:32:15.549Z,101639.84
2018-09-25T18:34:50.259Z,101641.13
2018-09-25T18:37:26.906Z,101642.94
2018-09-25T18:40:03.184Z,101646.02
2018-09-25T18:42:38.725Z,101649.12
2018-09-25T18:45:13.679Z,101650.93
2018-09-25T18:47:48.650Z,101653.22
2018-09-25T18:50:24.294Z,101618.54
2018-09-25T18:53:00.957Z,101616.07
2018-09-25T18:55:37.571Z,101643.02
2018-09-25T18:58:14.353Z,101645.64
2018-09-25T19:00:50.249Z,101641.18
2018-09-25T19:03:26.161Z,101645.78
2018-09-25T19:06:01.898Z,101640.20
2018-09-25T19:08:38.310Z,101641.80
2018-09-25T19:11:13.476Z,101623.96
2018-09-25T19:13:49.032Z,101642.72
2018-09-25T19:16:23.784Z,101637.97
2018-09-25T19:18:59.665Z,101637.48
2018-09-25T19:21:35.392Z,101639.09
2018-09-25T19:24:11.337Z,101638.24
2018-09-25T19:26:46.037Z,101636.25
2018-09-25T19:29:20.722Z,101632.80
2018-09-25T19:31:56.711Z,101630.42
2018-09-25T19:34:32.549Z,101628.75
2018-09-25T19:37:07.826Z,101628.89
2018-09-25T19:39:42.949Z,101621.45
2018-09-25T19:42:18.183Z,101593.09
2018-09-25T19:44:53.899Z,101621.81
2018-09-25T19:47:30.291Z,101619.47
2018-09-25T19:50:05.856Z,101614.57
2018-09-25T19:52:41.091Z,101613.77
2018-09-25T19:55:15.791Z,101617.70
2018-09-25T19:57:50.741Z,101608.63
2018-09-25T20:00:25.417Z,101608.23
2018-09-25T20:03:00.831Z,101608.84
2018-09-25T20:05:37.506Z,101604.92
2018-09-25T20:08:12.921Z,101594.14
2018-09-25T20:10:47.839Z,101599.86
2018-09-25T20:13:23.316Z,101603.30
2018-09-25T20:15:58.391Z,101605.92
2018-09-25T20:18:35.187Z,101612.13
2018-09-25T20:21:10.513Z,101608.80
2018-09-25T20:23:45.672Z,101618.03
2018-09-25T20:26:22.866Z,101623.72
2018-09-25T20:28:58.511Z,101620.28
2018-09-25T20:31:33.434Z,101615.87
2018-09-25T20:34:08.449Z,101619.94
2018-09-25T20:36:43.360Z,101615.24
2018-09-25T20:39:18.426Z,101625.85
2018-09-25T20:41:53.437Z,101635.61
2018-09-25T20:44:28.586Z,101635.81
2018-09-25T20:47:03.696Z,101633.13
2018-09-25T20:49:38.859Z,101631.69
2018-09-25T20:52:14.427Z,101640.11
2018-09-25T20:54:50.035Z,101639.25
2018-09-25T20:57:26.980Z,101643.47
2018-09-25T21:00:03.390Z,101650.34
2018-09-25T21:02:38.444Z,101642.47
2018-09-25T21:05:13.295Z,101650.97
2018-09-25T21:07:48.142Z,101651.31
2018-09-25T21:10:23.705Z,101552.01
2018-09-25T21:12:58.973Z,101638.71
2018-09-25T21:15:34.626Z,101628.56
2018-09-25T21:18:09.528Z,101635.23
2018-09-25T21:20:44.078Z,101632.66
2018-09-25T21:23:20.611Z,101633.94
2018-09-25T21:25:56.041Z,101633.11
2018-09-25T21:28:31.788Z,101629.38
2018-09-25T21:31:06.668Z,101625.59
2018-09-25T21:33:42.832Z,101618.25
2018-09-25T21:36:18.405Z,101617.91
2018-09-25T21:38:53.558Z,101616.34
2018-09-25T21:41:29.737Z,101613.97
2018-09-25T21:44:05.107Z,101610.70
2018-09-25T21:46:40.181Z,101600.89
2018-09-25T21:49:15.052Z,101607.91
2018-09-25T21:51:49.850Z,101611.32
2018-09-25T21:54:24.927Z,101612.34
2018-09-25T21:57:00.230Z,101621.64
2018-09-25T21:59:35.701Z,101621.75
2018-09-25T22:02:10.792Z,101616.03
2018-09-25T22:04:46.295Z,101606.71
2018-09-25T22:07:21.197Z,101612.39
2018-09-25T22:09:56.019Z,101606.78
2018-09-25T22:12:30.761Z,101613.08
2018-09-25T22:15:05.331Z,101607.02
2018-09-25T22:17:40.171Z,101614.38
2018-09-25T22:20:14.818Z,101609.50
2018-09-25T22:22:50.270Z,101625.08
2018-09-25T22:25:26.821Z,101581.23
2018-09-25T22:28:03.398Z,101622.52
2018-09-25T22:30:38.253Z,101620.12
2018-09-25T22:33:14.042Z,101610.66
2018-09-25T22:35:49.186Z,101608.19
2018-09-25T22:38:24.141Z,101621.48
2018-09-25T22:40:59.425Z,101613.51
2018-09-25T22:43:34.857Z,101601.75
2018-09-25T22:46:09.572Z,101587.33
2018-09-25T22:48:44.212Z,101587.20
2018-09-25T22:51:19.867Z,101581.48
2018-09-25T22:53:55.510Z,101585.47
2018-09-25T22:56:30.183Z,101592.03
2018-09-25T22:59:05.423Z,101586.19
2018-09-25T23:01:40.608Z,101589.63
2018-09-25T23:04:16.034Z,101584.54
2018-09-25T23:06:51.543Z,101571.12
2018-09-25T23:09:26.870Z,101564.88
2018-09-25T23:12:02.428Z,101565.31
2018-09-25T23:14:37.831Z,101565.00
2018-09-25T23:17:13.437Z,101568.09
2018-09-25T23:19:48.649Z,101560.00
2018-09-25T23:22:24.111Z,101556.61
2018-09-25T23:24:59.001Z,101548.91
2018-09-25T23:27:34.220Z,101536.33
2018-09-25T23:30:10.390Z,101527.43
2018-09-25T23:32:45.533Z,101526.56
2018-09-25T23:35:21.455Z,101512.70
2018-09-25T23:37:57.609Z,101531.79
2018-09-25T23:41:01.784Z,101527.19
2018-09-25T23:43:51.430Z,101527.63
2018-09-25T23:46:29.584Z,101526.41
2018-09-25T23:49:37.450Z,101522.72
2018-09-25T23:52:18.344Z,101519.63
2018-09-25T23:55:07.726Z,101522.55
2018-09-25T23:57:42.150Z,101528.94
